Date,TemperatureHighF,TemperatureAvgF,TemperatureLowF,DewpointHighF,DewpointAvgF,DewpointLowF,HumidityHigh,HumidityAvg,HumidityLow,PressureMaxIn,PressureMinIn,WindSpeedMaxMPH,WindSpeedAvgMPH,GustSpeedMaxMPH,PrecipitationSumIn
2013-10-1,74.3,64.6,57.2,64.9,61.4,55.7,98,90,70,30.05,29.97,13,3,15,0.01
2013-10-2,81.8,69.6,61.5,69.7,65.2,60.6,98,87,66,30.10,30.00,11,1,11,0.00
2013-10-3,80.2,69.2,61.4,70.3,65.8,60.3,98,90,66,30.03,29.91,14,2,15,0.31
2013-10-4,84.5,72.0,65.5,73.6,67.9,63.3,96,87,65,30.01,29.95,17,2,17,0.38
2013-10-5,76.2,69.1,65.2,73.4,67.8,64.1,99,96,85,30.00,29.85,15,2,24,0.49
2013-10-6,67.6,59.6,45.0,66.7,55.8,41.4,98,88,64,29.86,29.70,22,4,22,0.44
2013-10-7,61.6,49.7,43.3,50.4,44.4,40.8,96,83,56,30.15,29.79,19,2,19,0.00
2013-10-8,73.8,57.5,44.1,53.4,48.4,43.0,97,75,45,30.27,30.15,11,1,12,0.00
2013-10-9,72.0,56.3,40.9,52.1,46.1,38.7,96,71,41,30.29,30.18,11,0,11,0.00
2013-10-10,75.5,58.4,44.8,54.2,47.9,43.1,95,72,39,30.22,30.11,9,0,9,0.00
2013-10-11,77.2,59.3,41.5,53.9,47.9,40.3,97,71,34,30.14,30.03,9,0,10,0.00
2013-10-12,80.4,64.5,48.9,62.5,54.5,46.1,96,73,41,30.13,30.02,13,1,14,0.00
2013-10-13,67.7,57.2,46.5,61.4,46.9,40.6,95,71,38,30.39,30.13,13,1,13,0.00
2013-10-14,65.6,51.5,39.6,49.2,44.2,37.4,97,78,51,30.41,30.23,13,1,13,0.00
2013-10-15,65.0,56.8,47.7,61.7,53.9,44.4,96,90,84,30.24,29.86,14,2,16,0.02
2013-10-16,62.8,52.0,44.4,61.3,47.8,42.8,96,86,74,29.98,29.87,19,3,19,0.00
2013-10-17,51.7,47.0,40.4,48.4,44.8,39.3,97,92,83,29.97,29.85,15,2,15,0.08
2013-10-18,62.9,48.0,39.7,48.4,42.3,36.9,96,82,53,30.00,29.91,19,2,19,0.00
2013-10-19,53.7,45.1,40.4,43.5,39.1,34.3,96,81,52,29.98,29.84,20,2,20,0.13
2013-10-20,64.3,51.8,40.1,44.9,41.1,36.5,88,68,48,29.96,29.85,22,4,23,0.00
2013-10-21,55.8,48.9,35.9,48.1,41.7,28.8,90,76,66,29.98,29.87,21,4,21,0.00
2013-10-22,48.5,36.1,27.7,35.1,30.0,25.4,95,81,42,30.04,29.93,12,1,12,0.17
2013-10-23,44.1,37.8,34.8,39.4,34.2,28.8,97,88,61,30.04,29.89,12,0,12,0.04
2013-10-24,44.4,36.0,27.4,35.6,30.0,26.0,96,80,55,30.30,30.03,11,0,12,0.01
2013-10-25,48.7,36.9,26.5,33.0,27.9,24.3,93,72,44,30.44,30.21,18,1,18,0.00
2013-10-26,56.6,44.2,34.9,39.8,33.3,28.4,89,66,50,30.21,29.88,26,6,26,0.00
2013-10-27,54.2,41.7,29.5,36.9,31.6,27.4,93,70,43,30.14,30.05,18,2,18,0.00
2013-10-28,59.5,43.1,29.2,39.4,33.7,26.3,93,72,41,30.37,30.11,9,0,9,0.00
2013-10-29,54.4,44.6,34.0,42.5,38.7,31.8,93,81,62,30.41,30.23,12,2,12,0.00
2013-10-30,62.6,53.2,39.6,61.9,49.7,37.3,98,88,77,30.23,29.91,15,3,16,0.41
2013-10-31,63.2,60.2,51.7,62.6,59.6,50.8,99,98,96,29.91,29.25,31,12,33,0.89